Time;durP1;ratioP1;P1;durP2;ratioP2;P2;SDS_P1;SDS_P2;PMS_P1;PMS_P2;Temp;Humidity;BMP_temperature;BMP_pressure;BME280_temperature;BME280_humidity;BME280_pressure;Samples;Min_cycle;Max_cycle;Signal;HPM_P1;HPM_P2
2022/11/22 00:00:09;;;;;;;53.90;25.20;;;1.20;99.90;;;;;;5008186;28;20576;-65
2022/11/22 00:02:35;;;;;;;54.30;25.95;;;1.20;99.90;;;;;;5006991;28;20399;-65
2022/11/22 00:05:02;;;;;;;55.72;26.83;;;1.20;99.90;;;;;;5008241;28;20046;-65
2022/11/22 00:07:29;;;;;;;58.75;28.13;;;1.20;99.90;;;;;;5005593;28;20046;-65
2022/11/22 00:09:55;;;;;;;61.78;26.90;;;1.20;99.90;;;;;;5009559;28;20046;-65
2022/11/22 00:12:25;;;;;;;52.30;24.45;;;1.20;99.90;;;;;;5010160;28;20080;-66
2022/11/22 00:14:57;;;;;;;54.92;25.80;;;1.20;99.90;;;;;;4992263;28;20076;-66
2022/11/22 00:17:22;;;;;;;52.65;24.90;;;1.30;99.90;;;;;;5006416;28;20074;-66
2022/11/22 00:19:52;;;;;;;53.25;25.42;;;1.30;99.90;;;;;;5008599;28;20431;-65
2022/11/22 00:22:17;;;;;;;58.63;26.38;;;1.30;99.90;;;;;;5008346;28;20054;-65
2022/11/22 00:24:45;;;;;;;51.17;24.50;;;1.30;99.90;;;;;;5009763;28;20057;-65
2022/11/22 00:27:12;;;;;;;59.33;25.80;;;1.40;99.90;;;;;;5006900;28;20054;-65
2022/11/22 00:29:37;;;;;;;54.28;24.63;;;1.30;99.90;;;;;;5009338;28;20452;-66
2022/11/22 00:32:03;;;;;;;56.45;24.40;;;1.30;99.90;;;;;;5009388;28;20097;-66
2022/11/22 00:34:30;;;;;;;56.70;26.23;;;1.30;99.90;;;;;;5009946;28;20034;-67
2022/11/22 00:36:57;;;;;;;57.47;25.80;;;1.30;99.90;;;;;;5006130;28;20045;-66
2022/11/22 00:39:23;;;;;;;51.42;25.58;;;1.30;99.90;;;;;;5010363;28;20192;-68
2022/11/22 00:41:48;;;;;;;51.25;24.63;;;1.30;99.90;;;;;;5010472;28;20522;-66
2022/11/22 00:44:14;;;;;;;51.47;23.90;;;1.30;99.90;;;;;;5005826;28;20515;-66
2022/11/22 00:46:40;;;;;;;53.33;24.60;;;1.40;99.90;;;;;;5009624;28;20536;-67
2022/11/22 00:49:06;;;;;;;46.20;24.00;;;1.40;99.90;;;;;;5009546;28;20180;-66
2022/11/22 00:51:32;;;;;;;49.00;24.30;;;1.40;99.90;;;;;;5005792;28;20128;-66
2022/11/22 00:53:57;;;;;;;51.85;24.88;;;1.40;99.90;;;;;;5009477;28;20073;-67
2022/11/22 00:56:24;;;;;;;48.20;23.73;;;1.40;99.90;;;;;;4989623;28;20043;-66
2022/11/22 00:58:49;;;;;;;49.92;24.33;;;1.40;99.90;;;;;;5008167;28;20046;-67
2022/11/22 01:01:17;;;;;;;47.38;23.60;;;1.40;99.90;;;;;;5010789;28;20052;-66
2022/11/22 01:03:43;;;;;;;43.88;22.50;;;1.40;99.90;;;;;;5008490;28;20050;-66
2022/11/22 01:06:09;;;;;;;46.25;23.00;;;1.40;99.90;;;;;;5009816;28;20054;-65
2022/11/22 01:08:34;;;;;;;44.80;22.70;;;1.40;99.90;;;;;;5008304;28;20127;-66
2022/11/22 01:11:00;;;;;;;46.25;23.25;;;1.40;99.90;;;;;;5008882;28;20045;-66
2022/11/22 01:13:27;;;;;;;44.35;22.38;;;1.50;99.90;;;;;;5009243;28;20061;-66
2022/11/22 01:15:53;;;;;;;46.58;22.90;;;1.40;99.90;;;;;;4991979;28;20135;-65
2022/11/22 01:18:18;;;;;;;50.20;25.30;;;1.50;99.90;;;;;;5005102;28;20654;-65
2022/11/22 01:20:44;;;;;;;48.17;23.88;;;1.40;99.90;;;;;;5005806;28;20050;-66
2022/11/22 01:23:11;;;;;;;46.63;23.48;;;1.50;99.90;;;;;;5008914;28;20104;-66
2022/11/22 01:25:36;;;;;;;44.30;21.63;;;1.50;99.90;;;;;;5005528;28;20056;-66
2022/11/22 01:28:03;;;;;;;49.47;24.23;;;1.50;99.90;;;;;;5010044;28;20117;-66
2022/11/22 01:30:28;;;;;;;48.03;22.83;;;1.50;99.90;;;;;;5003947;28;20081;-65
2022/11/22 01:32:54;;;;;;;46.03;21.95;;;1.50;99.90;;;;;;4990407;28;20081;-66
2022/11/22 01:35:20;;;;;;;47.30;23.17;;;1.50;99.90;;;;;;5009015;28;20049;-67
2022/11/22 01:37:45;;;;;;;46.15;22.42;;;1.50;99.90;;;;;;5007623;28;20392;-65
2022/11/22 01:40:11;;;;;;;45.00;23.23;;;1.50;99.90;;;;;;5009673;28;20046;-65
2022/11/22 01:42:44;;;;;;;43.17;22.30;;;1.50;99.90;;;;;;5006782;28;20077;-66
2022/11/22 01:45:29;;;;;;;44.95;21.58;;;1.50;99.90;;;;;;5009861;28;20126;-66
2022/11/22 01:47:58;;;;;;;43.38;21.75;;;1.60;99.90;;;;;;5007753;28;20045;-65
2022/11/22 01:50:24;;;;;;;44.28;21.23;;;1.50;99.90;;;;;;5005076;28;20196;-66
2022/11/22 01:52:49;;;;;;;48.25;21.77;;;1.50;99.90;;;;;;4988891;28;20125;-66
2022/11/22 01:55:15;;;;;;;45.42;21.50;;;1.60;99.90;;;;;;5008645;28;20054;-66
2022/11/22 01:57:40;;;;;;;46.58;21.65;;;1.60;99.90;;;;;;5006779;28;20050;-66
2022/11/22 02:00:12;;;;;;;46.55;22.00;;;1.50;99.90;;;;;;5009525;28;20050;-66
2022/11/22 02:02:38;;;;;;;46.83;22.80;;;1.50;99.90;;;;;;5008000;28;20049;-65
2022/11/22 02:05:12;;;;;;;48.92;22.92;;;1.50;99.90;;;;;;5008182;28;20127;-65
2022/11/22 02:07:42;;;;;;;46.28;21.90;;;1.50;99.90;;;;;;5003789;28;20057;-67
2022/11/22 02:10:08;;;;;;;50.03;23.15;;;1.50;99.90;;;;;;5008641;28;20050;-64
2022/11/22 02:12:34;;;;;;;45.88;21.98;;;1.40;99.90;;;;;;5003055;28;20100;-65
2022/11/22 02:14:59;;;;;;;49.15;23.52;;;1.50;99.90;;;;;;5008011;28;20050;-65
2022/11/22 02:17:25;;;;;;;50.75;24.33;;;1.50;99.90;;;;;;5007754;28;20050;-65
2022/11/22 02:19:52;;;;;;;46.08;21.30;;;1.50;99.90;;;;;;5041372;28;20056;-65
2022/11/22 02:22:36;;;;;;;49.45;23.27;;;1.50;99.90;;;;;;5007313;28;20081;-67
2022/11/22 02:25:10;;;;;;;49.45;22.73;;;1.50;99.90;;;;;;5004553;28;20065;-66
2022/11/22 02:27:35;;;;;;;45.40;22.33;;;1.40;99.90;;;;;;5024650;28;20129;-64
2022/11/22 02:30:01;;;;;;;46.65;21.75;;;1.50;99.90;;;;;;5026171;28;20157;-65
2022/11/22 02:32:27;;;;;;;45.75;22.48;;;1.50;99.90;;;;;;5008617;28;20133;-65
2022/11/22 02:34:52;;;;;;;49.13;23.25;;;1.50;99.90;;;;;;5011765;28;20046;-65
2022/11/22 02:37:22;;;;;;;46.75;23.55;;;1.50;99.90;;;;;;5012606;28;20414;-66
2022/11/22 02:39:50;;;;;;;49.45;23.23;;;1.50;99.90;;;;;;5010465;28;20050;-65
2022/11/22 02:42:15;;;;;;;49.95;24.10;;;1.50;99.90;;;;;;5012477;28;20050;-65
2022/11/22 02:44:41;;;;;;;48.20;21.85;;;1.60;99.90;;;;;;5009545;28;20108;-64
2022/11/22 02:47:07;;;;;;;50.72;24.08;;;1.60;99.90;;;;;;5012096;28;20038;-64
2022/11/22 02:49:32;;;;;;;46.70;22.80;;;1.60;99.90;;;;;;5011627;28;20049;-65
2022/11/22 02:51:58;;;;;;;44.22;22.70;;;1.60;99.90;;;;;;5013003;28;20056;-65
2022/11/22 02:54:24;;;;;;;50.90;23.45;;;1.60;99.90;;;;;;5011503;28;20046;-66
2022/11/22 02:56:49;;;;;;;48.58;22.35;;;1.60;99.90;;;;;;4990643;28;20052;-65
2022/11/22 02:59:16;;;;;;;45.53;21.77;;;1.60;99.90;;;;;;5010841;28;20127;-65
2022/11/22 03:01:42;;;;;;;45.65;21.98;;;1.70;99.90;;;;;;5008912;28;20057;-65
2022/11/22 03:04:07;;;;;;;45.63;22.58;;;1.70;99.90;;;;;;4993500;28;20054;-64
2022/11/22 03:06:33;;;;;;;47.38;23.63;;;1.70;99.90;;;;;;5010371;28;20034;-64
2022/11/22 03:08:59;;;;;;;43.85;21.65;;;1.70;99.90;;;;;;5010316;28;20415;-65
2022/11/22 03:11:25;;;;;;;45.90;22.65;;;1.70;99.90;;;;;;5011569;28;20365;-67
2022/11/22 03:13:50;;;;;;;44.17;22.23;;;1.70;99.90;;;;;;5009282;28;20066;-66
2022/11/22 03:16:16;;;;;;;48.50;23.75;;;1.70;99.90;;;;;;5011941;28;20467;-65
2022/11/22 03:18:42;;;;;;;43.55;22.25;;;1.70;99.90;;;;;;4995695;28;20072;-66
2022/11/22 03:21:08;;;;;;;46.42;23.20;;;1.70;99.90;;;;;;4993257;28;20052;-65
2022/11/22 03:23:33;;;;;;;47.67;22.40;;;1.70;99.90;;;;;;5005957;28;20054;-65
2022/11/22 03:26:04;;;;;;;48.35;23.73;;;1.70;99.90;;;;;;5010539;28;20057;-65
2022/11/22 03:28:30;;;;;;;48.10;23.30;;;1.70;99.90;;;;;;5009115;28;20054;-64
2022/11/22 03:30:56;;;;;;;45.88;22.58;;;1.70;99.90;;;;;;4991801;28;20593;-69
2022/11/22 03:33:22;;;;;;;45.95;23.15;;;1.70;99.90;;;;;;4994342;28;20636;-65
2022/11/22 03:35:47;;;;;;;44.47;22.48;;;1.80;99.90;;;;;;4994074;28;20050;-65
2022/11/22 03:38:13;;;;;;;48.95;23.75;;;1.70;99.90;;;;;;5010627;28;20050;-64
2022/11/22 03:40:44;;;;;;;51.17;24.08;;;1.80;99.90;;;;;;5010951;28;20053;-64
2022/11/22 03:43:10;;;;;;;49.50;23.92;;;1.80;99.90;;;;;;5009884;28;20744;-64
2022/11/22 03:45:35;;;;;;;45.20;22.15;;;1.70;99.90;;;;;;5010542;28;20088;-64
2022/11/22 03:48:01;;;;;;;49.00;23.27;;;1.70;99.90;;;;;;5010003;28;20049;-65
2022/11/22 03:50:26;;;;;;;53.53;25.02;;;1.80;99.90;;;;;;5007954;28;20073;-65
2022/11/22 03:52:52;;;;;;;45.00;22.17;;;1.80;99.90;;;;;;5010271;28;20144;-64
2022/11/22 03:55:18;;;;;;;48.03;23.88;;;1.80;99.90;;;;;;4989335;28;20074;-66
2022/11/22 03:57:44;;;;;;;48.38;24.65;;;1.80;99.90;;;;;;5010544;28;20042;-65
2022/11/22 04:00:12;;;;;;;47.65;22.92;;;1.70;99.90;;;;;;5010286;28;20061;-65
2022/11/22 04:02:38;;;;;;;50.30;23.83;;;1.70;99.90;;;;;;5010077;28;20705;-65
2022/11/22 04:05:06;;;;;;;47.92;23.10;;;1.70;99.90;;;;;;5007817;28;20050;-65
2022/11/22 04:07:33;;;;;;;48.28;23.98;;;1.70;99.90;;;;;;5011043;28;20053;-65
2022/11/22 04:09:58;;;;;;;47.08;22.25;;;1.80;99.90;;;;;;5007122;28;20085;-65
2022/11/22 04:12:24;;;;;;;47.92;22.92;;;1.90;99.90;;;;;;5009821;28;20385;-65
2022/11/22 04:15:07;;;;;;;47.33;22.00;;;1.80;99.90;;;;;;4993534;28;20412;-65
2022/11/22 04:17:40;;;;;;;45.38;22.67;;;1.90;99.90;;;;;;5007976;28;20375;-66
2022/11/22 04:23:03;;;;;;;44.75;21.80;;;1.90;99.90;;;;;;5009852;28;20081;-64
2022/11/22 04:25:29;;;;;;;43.63;21.83;;;1.90;99.90;;;;;;5009175;28;20471;-66
2022/11/22 04:27:55;;;;;;;43.58;20.83;;;1.90;99.90;;;;;;5009315;28;20531;-66
2022/11/22 04:32:44;;;;;;;46.67;21.30;;;1.90;99.90;;;;;;5009716;28;20136;-66
2022/11/22 04:33:07;;;;;;;47.58;22.10;;;2.00;99.90;;;;;;5004588;28;20041;-65
2022/11/22 04:35:34;;;;;;;49.85;23.58;;;1.90;99.90;;;;;;5009147;28;20052;-66
2022/11/22 04:38:01;;;;;;;45.88;23.38;;;1.90;99.90;;;;;;5009279;28;20042;-66
2022/11/22 04:40:29;;;;;;;50.92;22.77;;;2.00;99.90;;;;;;5009665;28;20057;-65
2022/11/22 04:45:40;;;;;;;43.65;21.95;;;2.00;99.90;;;;;;5010017;28;20034;-65
2022/11/22 04:48:05;;;;;;;39.97;20.88;;;2.00;99.90;;;;;;5005635;28;20349;-67
2022/11/22 04:53:19;;;;;;;40.88;20.77;;;2.00;99.90;;;;;;5009931;28;20038;-66
2022/11/22 04:55:45;;;;;;;44.35;21.70;;;2.00;99.90;;;;;;5005554;28;20052;-65
2022/11/22 04:58:12;;;;;;;40.53;20.67;;;2.10;99.90;;;;;;5009215;28;20095;-65
2022/11/22 05:00:39;;;;;;;42.30;20.08;;;2.10;99.90;;;;;;5009117;28;20139;-66
2022/11/22 05:03:07;;;;;;;44.75;21.98;;;2.10;99.90;;;;;;5008657;28;20092;-66
2022/11/22 05:05:38;;;;;;;38.88;20.35;;;2.10;99.90;;;;;;5001482;28;20055;-64
2022/11/22 05:08:05;;;;;;;40.80;21.40;;;2.10;99.90;;;;;;4988178;28;20074;-66
2022/11/22 05:13:19;;;;;;;45.30;21.88;;;2.10;99.90;;;;;;5008752;28;20148;-66
2022/11/22 05:15:45;;;;;;;44.95;22.38;;;2.10;99.90;;;;;;5008583;28;20042;-65
2022/11/22 05:18:12;;;;;;;52.13;25.02;;;2.10;99.90;;;;;;5008720;28;20279;-65
2022/11/22 05:20:38;;;;;;;40.58;20.95;;;2.10;99.90;;;;;;5009440;28;20042;-66
2022/11/22 05:25:51;;;;;;;31.15;14.88;;;2.10;99.90;;;;;;5008523;28;20073;-66
2022/11/22 05:28:16;;;;;;;46.10;22.40;;;2.20;99.90;;;;;;5008442;28;20041;-65
2022/11/22 05:30:42;;;;;;;44.80;21.85;;;2.20;99.90;;;;;;5008542;28;20192;-65
2022/11/22 05:33:08;;;;;;;42.30;21.60;;;2.20;99.90;;;;;;5002644;28;20046;-65
2022/11/22 05:35:33;;;;;;;40.45;20.40;;;2.20;99.90;;;;;;5007628;28;20038;-64
2022/11/22 05:37:59;;;;;;;41.55;21.42;;;2.20;99.90;;;;;;4991369;28;20042;-65
2022/11/22 05:40:25;;;;;;;38.08;19.40;;;2.20;99.90;;;;;;5008727;28;20419;-66
2022/11/22 05:42:51;;;;;;;40.25;20.98;;;2.30;99.90;;;;;;4988687;28;20057;-65
2022/11/22 05:45:17;;;;;;;43.22;22.08;;;2.30;99.90;;;;;;5006828;28;20049;-67
2022/11/22 05:47:42;;;;;;;40.45;21.08;;;2.30;99.90;;;;;;5008697;28;20602;-66
2022/11/22 05:50:08;;;;;;;43.88;22.40;;;2.30;99.90;;;;;;5007604;28;20065;-66
2022/11/22 05:52:36;;;;;;;47.25;23.20;;;2.30;99.90;;;;;;5007011;28;20042;-66
2022/11/22 05:55:02;;;;;;;44.78;24.23;;;2.30;99.90;;;;;;5006756;28;20041;-66
2022/11/22 05:57:28;;;;;;;44.60;24.13;;;2.20;99.90;;;;;;5009666;28;20456;-64
2022/11/22 05:59:53;;;;;;;45.60;23.00;;;2.20;99.90;;;;;;4991657;28;20049;-65
2022/11/22 06:02:19;;;;;;;42.90;22.48;;;2.30;99.90;;;;;;5007725;28;20460;-65
2022/11/22 06:04:48;;;;;;;43.63;23.73;;;2.30;99.90;;;;;;5008851;28;20455;-65
2022/11/22 06:07:13;;;;;;;38.28;20.60;;;2.30;99.90;;;;;;5013857;28;20621;-66
2022/11/22 06:09:40;;;;;;;43.38;22.40;;;2.30;99.90;;;;;;5007611;28;20046;-67
2022/11/22 06:12:06;;;;;;;42.03;21.33;;;2.30;99.90;;;;;;5015059;28;20042;-65
2022/11/22 06:14:33;;;;;;;46.30;23.05;;;2.30;99.90;;;;;;5015400;28;20046;-66
2022/11/22 06:16:59;;;;;;;42.28;21.63;;;2.30;99.90;;;;;;5014088;28;20046;-67
2022/11/22 06:19:24;;;;;;;50.03;26.08;;;2.30;99.90;;;;;;4991396;28;20046;-65
2022/11/22 06:21:51;;;;;;;43.35;24.20;;;2.30;99.90;;;;;;5014200;28;20045;-65
2022/11/22 06:24:17;;;;;;;46.22;24.30;;;2.30;99.90;;;;;;5015144;28;20045;-65
2022/11/22 06:26:43;;;;;;;48.05;24.15;;;2.30;99.90;;;;;;5013552;28;20180;-68
2022/11/22 06:29:08;;;;;;;40.88;22.05;;;2.30;99.90;;;;;;4997258;28;20045;-65
2022/11/22 06:31:35;;;;;;;36.13;21.08;;;2.40;99.90;;;;;;5014400;28;20050;-67
2022/11/22 06:34:02;;;;;;;44.72;24.27;;;2.40;99.90;;;;;;4998300;28;20128;-66
2022/11/22 06:36:48;;;;;;;41.53;22.58;;;2.40;99.90;;;;;;5012822;28;20140;-65
2022/11/22 06:39:13;;;;;;;43.65;23.38;;;2.40;99.90;;;;;;5014006;28;20045;-66
2022/11/22 06:41:40;;;;;;;44.33;24.65;;;2.40;99.90;;;;;;5014476;28;20057;-66
2022/11/22 06:44:07;;;;;;;45.25;23.52;;;2.40;99.90;;;;;;5014007;28;20467;-66
2022/11/22 06:46:34;;;;;;;44.55;23.73;;;2.40;99.90;;;;;;5013302;28;20049;-67
2022/11/22 06:49:01;;;;;;;46.63;24.58;;;2.40;99.90;;;;;;5030390;28;20442;-66
2022/11/22 06:51:28;;;;;;;43.08;22.63;;;2.40;99.90;;;;;;5011503;28;20045;-66
2022/11/22 06:53:54;;;;;;;43.53;24.40;;;2.40;99.90;;;;;;5013526;28;20049;-66
2022/11/22 06:56:22;;;;;;;41.60;22.80;;;2.40;99.90;;;;;;5014403;28;20724;-67
2022/11/22 06:58:48;;;;;;;36.33;20.08;;;2.50;99.90;;;;;;5015155;28;20092;-66
2022/11/22 07:01:15;;;;;;;40.78;22.08;;;2.50;99.90;;;;;;5013337;28;20053;-67
2022/11/22 07:03:41;;;;;;;40.22;21.90;;;2.50;99.90;;;;;;5014592;28;20054;-67
2022/11/22 07:06:07;;;;;;;43.22;23.23;;;2.50;99.90;;;;;;5013791;28;20136;-66
2022/11/22 07:08:33;;;;;;;38.88;22.20;;;2.50;99.90;;;;;;5014190;28;20059;-66
2022/11/22 07:11:04;;;;;;;38.83;21.95;;;2.50;99.90;;;;;;5013962;28;20128;-66
2022/11/22 07:13:30;;;;;;;37.00;21.38;;;2.50;99.90;;;;;;5013554;28;20117;-66
2022/11/22 07:15:59;;;;;;;37.28;18.98;;;2.60;99.90;;;;;;5009693;28;20393;-65
2022/11/22 07:18:26;;;;;;;;;;;2.50;99.90;;;;;;5011509;28;20077;-66
2022/11/22 07:20:53;;;;;;;34.47;18.60;;;2.60;99.90;;;;;;5011327;28;19971;-66
2022/11/22 07:23:20;;;;;;;38.05;20.70;;;2.60;99.90;;;;;;5007211;28;20053;-65
2022/11/22 07:25:46;;;;;;;36.60;20.13;;;2.60;99.90;;;;;;5024205;28;20052;-65
2022/11/22 07:28:12;;;;;;;27.88;16.63;;;2.60;99.90;;;;;;4994288;28;20422;-66
2022/11/22 07:30:38;;;;;;;37.05;16.25;;;2.60;99.90;;;;;;5009565;28;20360;-68
2022/11/22 07:33:04;;;;;;;26.13;16.83;;;2.60;99.90;;;;;;5010121;28;20459;-67
2022/11/22 07:35:29;;;;;;;26.98;15.45;;;2.70;99.90;;;;;;5011040;28;20122;-67
2022/11/22 07:37:56;;;;;;;28.35;16.20;;;2.70;99.90;;;;;;5009762;28;20067;-67
2022/11/22 07:40:22;;;;;;;34.30;19.50;;;2.70;99.90;;;;;;5011264;28;20060;-68
2022/11/22 07:42:47;;;;;;;37.95;21.05;;;2.70;99.90;;;;;;5010527;28;20050;-66
2022/11/22 07:45:13;;;;;;;37.17;21.15;;;2.70;99.90;;;;;;5009914;28;20179;-67
2022/11/22 07:47:39;;;;;;;36.60;20.00;;;2.70;99.90;;;;;;5007462;28;20546;-68
2022/11/22 07:50:05;;;;;;;39.60;20.88;;;2.70;99.90;;;;;;5010956;28;20050;-68
2022/11/22 07:52:31;;;;;;;33.78;19.38;;;2.70;99.90;;;;;;5008879;28;20499;-67
2022/11/22 07:54:56;;;;;;;31.48;17.95;;;2.80;99.90;;;;;;5010820;28;20045;-68
2022/11/22 07:57:22;;;;;;;31.25;18.42;;;2.80;99.90;;;;;;4995467;28;20041;-68
2022/11/22 07:59:47;;;;;;;29.80;18.17;;;2.90;99.90;;;;;;5008670;28;20152;-68
2022/11/22 08:02:13;;;;;;;30.70;18.15;;;2.90;99.90;;;;;;5012277;28;20631;-67
2022/11/22 08:04:39;;;;;;;34.03;18.08;;;2.90;99.90;;;;;;5008961;28;20050;-66
2022/11/22 08:07:04;;;;;;;36.25;18.40;;;2.90;99.90;;;;;;5006882;28;20577;-66
2022/11/22 08:09:30;;;;;;;35.92;17.25;;;2.90;99.90;;;;;;4995383;28;20069;-67
2022/11/22 08:11:55;;;;;;;26.92;16.60;;;2.90;99.90;;;;;;5007461;28;20057;-66
2022/11/22 08:14:22;;;;;;;32.75;17.30;;;2.90;99.90;;;;;;5011043;28;20054;-67
2022/11/22 08:16:48;;;;;;;29.27;16.48;;;2.90;99.90;;;;;;5007235;28;20042;-67
2022/11/22 08:19:16;;;;;;;29.35;17.05;;;3.00;99.90;;;;;;5007551;28;20108;-67
2022/11/22 08:21:43;;;;;;;25.40;15.85;;;3.00;99.90;;;;;;5007512;28;20385;-66
2022/11/22 08:24:09;;;;;;;26.05;15.00;;;3.00;99.90;;;;;;5010405;28;20145;-66
2022/11/22 08:26:35;;;;;;;25.38;15.60;;;3.00;99.90;;;;;;5007161;28;20137;-66
2022/11/22 08:29:06;;;;;;;24.80;14.20;;;3.00;99.90;;;;;;4990429;28;20061;-67
2022/11/22 08:31:32;;;;;;;27.20;16.23;;;3.00;99.90;;;;;;5006737;28;20058;-70
2022/11/22 08:33:58;;;;;;;28.40;15.48;;;3.10;99.90;;;;;;4992536;28;20046;-70
2022/11/22 08:36:24;;;;;;;26.20;15.95;;;3.10;99.90;;;;;;5009124;28;20049;-67
2022/11/22 08:38:50;;;;;;;31.25;17.52;;;3.10;99.90;;;;;;5008177;28;20050;-67
2022/11/22 08:41:17;;;;;;;26.75;15.07;;;3.10;99.90;;;;;;5008614;28;20526;-67
2022/11/22 08:43:43;;;;;;;29.77;15.23;;;3.10;99.90;;;;;;5009662;28;20502;-66
2022/11/22 08:46:09;;;;;;;26.05;14.75;;;3.10;99.90;;;;;;5004906;28;20725;-66
2022/11/22 08:48:35;;;;;;;24.63;14.25;;;3.10;99.90;;;;;;5008701;28;20057;-69
2022/11/22 08:51:03;;;;;;;24.60;14.38;;;3.00;99.90;;;;;;4990568;28;20057;-67
2022/11/22 08:53:31;;;;;;;27.00;15.33;;;3.00;99.90;;;;;;5009318;28;20104;-67
2022/11/22 08:55:58;;;;;;;;;;;3.00;99.90;;;;;;4993021;28;20522;-66
2022/11/22 08:58:23;;;;;;;25.73;15.10;;;3.00;99.90;;;;;;5007466;28;19929;-66
2022/11/22 09:00:50;;;;;;;26.45;16.30;;;2.90;99.90;;;;;;5008177;28;20050;-66
2022/11/22 09:03:17;;;;;;;26.13;14.93;;;2.90;99.90;;;;;;5008986;28;20046;-67
2022/11/22 09:05:43;;;;;;;27.05;15.77;;;2.80;99.90;;;;;;5006884;28;20050;-66
2022/11/22 09:08:09;;;;;;;27.63;15.57;;;2.80;99.90;;;;;;5008409;28;20375;-66
2022/11/22 09:10:34;;;;;;;29.67;15.52;;;2.80;99.90;;;;;;5008227;28;20046;-68
2022/11/22 09:13:01;;;;;;;31.63;17.40;;;2.80;99.90;;;;;;5009351;28;20042;-66
2022/11/22 09:15:28;;;;;;;29.08;16.92;;;2.80;99.90;;;;;;5023736;28;20067;-67
2022/11/22 09:18:00;;;;;;;29.52;17.13;;;2.80;99.90;;;;;;5009556;28;20190;-66
2022/11/22 09:20:26;;;;;;;28.77;17.55;;;2.80;99.90;;;;;;4992839;28;20050;-67
2022/11/22 09:22:52;;;;;;;33.05;18.40;;;2.80;99.90;;;;;;5008707;28;20046;-66
2022/11/22 09:25:17;;;;;;;34.38;19.70;;;2.80;99.90;;;;;;5008688;28;20112;-66
2022/11/22 09:27:43;;;;;;;34.92;18.67;;;2.80;99.90;;;;;;5010186;28;20100;-66
2022/11/22 09:30:09;;;;;;;31.27;17.80;;;2.80;99.90;;;;;;5009183;28;20063;-67
2022/11/22 09:32:35;;;;;;;32.22;18.02;;;2.90;99.90;;;;;;5004768;28;20347;-67
2022/11/22 09:35:00;;;;;;;31.65;19.15;;;2.80;99.90;;;;;;5024587;28;20478;-68
2022/11/22 09:37:26;;;;;;;31.77;18.23;;;2.90;99.90;;;;;;5004401;28;20488;-67
2022/11/22 09:39:51;;;;;;;30.45;18.40;;;2.90;99.90;;;;;;5018508;28;20057;-67
2022/11/22 09:42:29;;;;;;;28.67;17.90;;;3.00;99.90;;;;;;5037909;28;20049;-68
2022/11/22 09:44:59;;;;;;;29.83;16.67;;;2.90;99.90;;;;;;5008921;28;20049;-69
2022/11/22 09:47:47;;;;;;;29.95;18.23;;;2.90;99.90;;;;;;5022075;28;20049;-69
2022/11/22 09:50:37;;;;;;;37.00;18.10;;;2.90;99.90;;;;;;5024736;28;20060;-69
2022/11/22 09:53:21;;;;;;;34.20;18.60;;;3.00;99.90;;;;;;5007974;28;20724;-70
2022/11/22 09:55:50;;;;;;;31.30;18.15;;;2.90;99.90;;;;;;5008261;28;20120;-68
2022/11/22 09:58:30;;;;;;;28.17;16.67;;;3.00;99.90;;;;;;5009460;28;20056;-69
2022/11/22 10:01:17;;;;;;;33.58;17.42;;;2.90;99.90;;;;;;5003982;28;20075;-69
2022/11/22 10:04:00;;;;;;;30.05;17.77;;;3.00;99.90;;;;;;5007416;28;20451;-69
2022/11/22 10:06:48;;;;;;;32.15;18.60;;;3.00;99.90;;;;;;5004228;28;20050;-69
2022/11/22 10:09:39;;;;;;;30.13;17.50;;;3.10;99.90;;;;;;5009040;28;20060;-69
2022/11/22 10:12:27;;;;;;;27.90;17.08;;;3.20;99.90;;;;;;5007466;28;20041;-68
2022/11/22 10:15:05;;;;;;;28.02;16.70;;;3.20;99.90;;;;;;5009843;28;20131;-68
2022/11/22 10:17:50;;;;;;;42.03;18.10;;;3.30;99.90;;;;;;4993334;28;20136;-69
2022/11/22 10:20:20;;;;;;;28.73;16.38;;;3.30;99.90;;;;;;4993260;28;20112;-69
2022/11/22 10:22:46;;;;;;;28.95;17.05;;;3.40;99.90;;;;;;5003142;28;20054;-68
2022/11/22 10:25:38;;;;;;;28.05;17.48;;;3.50;99.90;;;;;;4990347;28;20049;-69
2022/11/22 10:28:33;;;;;;;30.77;17.08;;;3.50;99.90;;;;;;5003378;28;20046;-69
2022/11/22 10:31:13;;;;;;;27.42;15.77;;;3.60;99.90;;;;;;5009293;28;20224;-69
2022/11/22 10:33:44;;;;;;;26.85;16.48;;;3.70;99.90;;;;;;5008598;28;20164;-68
2022/11/22 10:36:19;;;;;;;27.85;16.35;;;3.70;99.90;;;;;;5005340;28;20046;-68
2022/11/22 10:38:56;;;;;;;27.02;16.38;;;3.80;99.90;;;;;;5008333;28;20041;-69
2022/11/22 10:41:47;;;;;;;26.98;15.68;;;3.80;99.90;;;;;;5006333;28;20080;-69
2022/11/22 10:44:27;;;;;;;26.17;15.45;;;3.80;99.90;;;;;;5000253;28;20042;-69
2022/11/22 10:47:00;;;;;;;25.38;16.00;;;3.80;99.90;;;;;;5007556;28;20042;-69
2022/11/22 10:49:46;;;;;;;23.45;15.07;;;3.80;99.90;;;;;;5007096;28;20049;-69
2022/11/22 10:53:11;;;;;;;24.70;15.27;;;3.80;99.90;;;;;;4988122;28;20041;-69
2022/11/22 10:55:55;;;;;;;28.83;16.15;;;3.80;99.90;;;;;;4951293;29;20071;-68
2022/11/22 10:59:18;;;;;;;25.10;14.98;;;3.80;99.90;;;;;;5011650;28;20042;-69
2022/11/22 11:02:20;;;;;;;25.77;15.23;;;3.90;99.90;;;;;;4990485;28;20124;-69
2022/11/22 11:04:45;;;;;;;26.00;15.05;;;3.80;99.90;;;;;;4989870;28;20046;-68
2022/11/22 11:07:16;;;;;;;25.63;14.60;;;3.80;99.90;;;;;;4999525;28;20132;-68
2022/11/22 11:09:43;;;;;;;27.40;15.07;;;3.90;99.90;;;;;;5011713;28;20057;-68
2022/11/22 11:12:22;;;;;;;25.05;14.93;;;3.90;99.90;;;;;;5007602;28;20042;-67
2022/11/22 11:14:50;;;;;;;27.13;15.13;;;4.00;99.90;;;;;;5021427;28;20408;-69
2022/11/22 11:17:17;;;;;;;25.20;14.43;;;4.10;99.90;;;;;;5011429;28;20077;-69
2022/11/22 11:19:43;;;;;;;21.92;13.85;;;4.20;99.90;;;;;;5011495;28;20046;-69
2022/11/22 11:22:15;;;;;;;24.73;14.85;;;4.30;99.90;;;;;;5012006;28;20080;-69
2022/11/22 11:24:40;;;;;;;22.25;13.98;;;4.30;99.90;;;;;;5011783;28;20053;-69
2022/11/22 11:27:06;;;;;;;22.27;14.50;;;4.40;99.90;;;;;;5011948;28;20139;-69
2022/11/22 11:29:57;;;;;;;24.52;14.00;;;4.50;99.90;;;;;;5007431;28;20050;-69
2022/11/22 11:32:24;;;;;;;24.77;14.68;;;4.60;99.90;;;;;;5010621;28;20442;-69
2022/11/22 11:34:55;;;;;;;23.52;14.27;;;4.70;99.90;;;;;;5011523;28;20052;-69
2022/11/22 11:37:32;;;;;;;21.92;14.38;;;4.80;99.90;;;;;;4994753;28;20050;-69
2022/11/22 11:39:57;;;;;;;23.35;14.73;;;4.90;99.90;;;;;;4992492;28;20046;-68
2022/11/22 11:42:33;;;;;;;24.08;15.07;;;4.90;99.90;;;;;;5011367;28;20057;-69
2022/11/22 11:45:17;;;;;;;22.23;13.63;;;5.00;99.90;;;;;;5015258;28;20053;-69
2022/11/22 11:47:42;;;;;;;22.75;14.48;;;5.00;99.90;;;;;;5011870;28;20853;-71
2022/11/22 11:50:27;;;;;;;20.55;13.40;;;5.10;99.90;;;;;;5002714;28;20061;-72
2022/11/22 11:53:03;;;;;;;22.42;14.68;;;5.20;99.90;;;;;;5001350;28;20073;-71
2022/11/22 11:55:35;;;;;;;22.33;13.73;;;5.20;99.90;;;;;;4991703;28;20081;-71
2022/11/22 11:58:24;;;;;;;22.40;13.63;;;5.20;99.90;;;;;;4998461;28;20456;-71
2022/11/22 12:00:49;;;;;;;23.33;14.20;;;5.30;99.90;;;;;;5006918;28;20349;-71
2022/11/22 12:03:24;;;;;;;24.38;15.23;;;5.40;99.90;;;;;;5005189;28;20501;-73
2022/11/22 12:05:49;;;;;;;26.25;15.95;;;5.50;99.90;;;;;;5007896;28;20334;-71
2022/11/22 12:08:28;;;;;;;25.00;16.15;;;5.60;99.90;;;;;;4991596;28;20038;-71
2022/11/22 12:11:05;;;;;;;26.10;15.32;;;5.70;99.90;;;;;;5013560;28;20764;-71
2022/11/22 12:13:32;;;;;;;22.02;14.98;;;5.80;99.90;;;;;;5005648;28;20046;-70
2022/11/22 12:16:17;;;;;;;22.80;13.50;;;5.90;99.90;;;;;;5006686;28;20045;-71
2022/11/22 12:18:49;;;;;;;21.05;13.55;;;5.90;99.90;;;;;;5007221;28;20099;-70
2022/11/22 12:21:38;;;;;;;22.25;13.80;;;5.80;99.90;;;;;;5001304;28;20050;-71
2022/11/22 12:24:03;;;;;;;22.55;13.07;;;5.70;99.90;;;;;;5006278;28;20057;-71
2022/11/22 12:26:30;;;;;;;21.20;13.15;;;5.70;99.90;;;;;;5005875;28;20065;-71
2022/11/22 12:28:56;;;;;;;18.23;13.02;;;5.80;99.90;;;;;;4990290;28;20042;-71
2022/11/22 12:31:54;;;;;;;23.05;14.13;;;5.70;99.90;;;;;;5023830;28;20092;-71
2022/11/22 12:34:32;;;;;;;21.08;12.93;;;5.80;99.90;;;;;;5023235;28;20046;-71
2022/11/22 12:37:17;;;;;;;;;;;5.80;99.90;;;;;;5024297;28;20736;-71
2022/11/22 12:39:46;;;;;;;20.05;12.85;;;5.90;99.90;;;;;;5006279;28;19913;-70
2022/11/22 12:42:42;;;;;;;20.48;13.02;;;6.00;99.90;;;;;;5006415;28;20077;-71
2022/11/22 12:45:18;;;;;;;20.85;14.13;;;6.10;99.90;;;;;;5005088;28;20462;-71
2022/11/22 12:47:44;;;;;;;22.73;14.93;;;6.10;99.90;;;;;;4990823;28;20068;-71
2022/11/22 12:50:29;;;;;;;24.10;14.95;;;6.20;99.90;;;;;;4986525;28;20046;-72
2022/11/22 12:53:08;;;;;;;25.55;15.98;;;6.30;99.90;;;;;;5005887;28;20057;-71
2022/11/22 12:56:00;;;;;;;24.58;16.20;;;6.30;99.90;;;;;;5005752;28;20061;-71
2022/11/22 12:58:46;;;;;;;19.95;13.15;;;6.40;99.90;;;;;;5006127;28;20388;-71
2022/11/22 13:01:29;;;;;;;22.80;13.63;;;6.40;99.90;;;;;;5006118;28;20096;-73
2022/11/22 13:04:18;;;;;;;19.88;12.48;;;6.40;99.90;;;;;;5002764;28;20618;-71